sensor_id;sensor_type;location;lat;lon;timestamp;P1;durP1;ratioP1;P2;durP2;ratioP2
7831;SDS011;3961;42.058;25.586;2023-05-07T00:00:46;10.67;;;5.00;;
7831;SDS011;3961;42.058;25.586;2023-05-07T00:03:11;7.20;;;5.20;;
7831;SDS011;3961;42.058;25.586;2023-05-07T00:05:38;9.27;;;4.73;;
7831;SDS011;3961;42.058;25.586;2023-05-07T00:08:04;7.47;;;4.97;;
7831;SDS011;3961;42.058;25.586;2023-05-07T00:10:30;9.47;;;5.13;;
7831;SDS011;3961;42.058;25.586;2023-05-07T00:12:55;10.40;;;5.10;;
7831;SDS011;3961;42.058;25.586;2023-05-07T00:15:21;6.03;;;4.40;;
7831;SDS011;3961;42.058;25.586;2023-05-07T00:17:46;6.50;;;4.70;;
7831;SDS011;3961;42.058;25.586;2023-05-07T00:20:12;10.80;;;5.27;;
7831;SDS011;3961;42.058;25.586;2023-05-07T00:22:37;9.27;;;5.40;;
7831;SDS011;3961;42.058;25.586;2023-05-07T00:25:03;5.60;;;5.00;;
7831;SDS011;3961;42.058;25.586;2023-05-07T00:27:29;9.80;;;5.47;;
7831;SDS011;3961;42.058;25.586;2023-05-07T00:29:55;11.43;;;5.40;;
7831;SDS011;3961;42.058;25.586;2023-05-07T00:32:20;9.60;;;5.97;;
7831;SDS011;3961;42.058;25.586;2023-05-07T00:34:46;13.40;;;5.60;;
7831;SDS011;3961;42.058;25.586;2023-05-07T00:37:11;10.70;;;5.80;;
7831;SDS011;3961;42.058;25.586;2023-05-07T00:39:37;9.30;;;5.87;;
7831;SDS011;3961;42.058;25.586;2023-05-07T00:42:02;7.63;;;5.83;;
7831;SDS011;3961;42.058;25.586;2023-05-07T00:44:28;8.27;;;5.37;;
7831;SDS011;3961;42.058;25.586;2023-05-07T00:46:58;11.46;;;5.81;;
7831;SDS011;3961;42.058;25.586;2023-05-07T00:49:30;7.97;;;5.37;;
7831;SDS011;3961;42.058;25.586;2023-05-07T00:52:05;8.83;;;6.00;;
7831;SDS011;3961;42.058;25.586;2023-05-07T00:54:31;7.53;;;5.47;;
7831;SDS011;3961;42.058;25.586;2023-05-07T00:56:58;8.77;;;5.50;;
7831;SDS011;3961;42.058;25.586;2023-05-07T00:59:24;12.03;;;5.80;;
7831;SDS011;3961;42.058;25.586;2023-05-07T01:01:49;7.57;;;5.20;;
7831;SDS011;3961;42.058;25.586;2023-05-07T01:04:15;9.40;;;5.67;;
7831;SDS011;3961;42.058;25.586;2023-05-07T01:06:40;10.30;;;5.60;;
7831;SDS011;3961;42.058;25.586;2023-05-07T01:09:06;8.37;;;5.07;;
7831;SDS011;3961;42.058;25.586;2023-05-07T01:11:34;9.93;;;5.77;;
7831;SDS011;3961;42.058;25.586;2023-05-07T01:13:59;12.07;;;5.63;;
7831;SDS011;3961;42.058;25.586;2023-05-07T01:16:25;9.37;;;5.37;;
7831;SDS011;3961;42.058;25.586;2023-05-07T01:18:51;12.60;;;5.37;;
7831;SDS011;3961;42.058;25.586;2023-05-07T01:21:17;11.33;;;6.33;;
7831;SDS011;3961;42.058;25.586;2023-05-07T01:23:44;8.73;;;5.80;;
7831;SDS011;3961;42.058;25.586;2023-05-07T01:26:11;8.63;;;5.40;;
7831;SDS011;3961;42.058;25.586;2023-05-07T01:28:36;10.83;;;5.40;;
7831;SDS011;3961;42.058;25.586;2023-05-07T01:31:02;10.63;;;5.67;;
7831;SDS011;3961;42.058;25.586;2023-05-07T01:33:29;11.73;;;6.67;;
7831;SDS011;3961;42.058;25.586;2023-05-07T01:36:00;11.57;;;6.20;;
7831;SDS011;3961;42.058;25.586;2023-05-07T01:38:28;8.03;;;6.03;;
7831;SDS011;3961;42.058;25.586;2023-05-07T01:40:55;9.33;;;6.47;;
7831;SDS011;3961;42.058;25.586;2023-05-07T01:43:21;8.83;;;6.63;;
7831;SDS011;3961;42.058;25.586;2023-05-07T01:45:46;9.80;;;6.30;;
7831;SDS011;3961;42.058;25.586;2023-05-07T01:48:14;10.93;;;6.73;;
7831;SDS011;3961;42.058;25.586;2023-05-07T01:50:41;11.07;;;6.97;;
7831;SDS011;3961;42.058;25.586;2023-05-07T01:53:08;11.37;;;6.00;;
7831;SDS011;3961;42.058;25.586;2023-05-07T01:55:33;10.93;;;7.10;;
7831;SDS011;3961;42.058;25.586;2023-05-07T01:57:59;11.50;;;7.07;;
7831;SDS011;3961;42.058;25.586;2023-05-07T02:00:25;10.70;;;6.53;;
7831;SDS011;3961;42.058;25.586;2023-05-07T02:02:50;10.83;;;7.03;;
7831;SDS011;3961;42.058;25.586;2023-05-07T02:05:18;16.13;;;6.83;;
7831;SDS011;3961;42.058;25.586;2023-05-07T02:07:43;10.33;;;6.93;;
7831;SDS011;3961;42.058;25.586;2023-05-07T02:10:09;8.30;;;6.80;;
7831;SDS011;3961;42.058;25.586;2023-05-07T02:12:34;11.50;;;7.20;;
7831;SDS011;3961;42.058;25.586;2023-05-07T02:15:00;15.13;;;7.17;;
7831;SDS011;3961;42.058;25.586;2023-05-07T02:17:25;11.77;;;7.50;;
7831;SDS011;3961;42.058;25.586;2023-05-07T02:19:51;19.90;;;7.50;;
7831;SDS011;3961;42.058;25.586;2023-05-07T02:22:16;10.30;;;7.20;;
7831;SDS011;3961;42.058;25.586;2023-05-07T02:24:42;10.93;;;7.20;;
7831;SDS011;3961;42.058;25.586;2023-05-07T02:27:09;12.37;;;6.70;;
7831;SDS011;3961;42.058;25.586;2023-05-07T02:29:35;10.97;;;6.77;;
7831;SDS011;3961;42.058;25.586;2023-05-07T02:32:00;10.43;;;6.70;;
7831;SDS011;3961;42.058;25.586;2023-05-07T02:34:26;13.40;;;6.60;;
7831;SDS011;3961;42.058;25.586;2023-05-07T02:36:52;11.13;;;6.70;;
7831;SDS011;3961;42.058;25.586;2023-05-07T02:39:18;12.73;;;7.03;;
7831;SDS011;3961;42.058;25.586;2023-05-07T02:41:43;9.50;;;7.63;;
7831;SDS011;3961;42.058;25.586;2023-05-07T02:44:08;12.07;;;6.70;;
7831;SDS011;3961;42.058;25.586;2023-05-07T02:46:34;8.57;;;6.77;;
7831;SDS011;3961;42.058;25.586;2023-05-07T02:49:00;13.13;;;6.90;;
7831;SDS011;3961;42.058;25.586;2023-05-07T02:51:25;10.93;;;6.90;;
7831;SDS011;3961;42.058;25.586;2023-05-07T02:53:52;10.67;;;6.93;;
7831;SDS011;3961;42.058;25.586;2023-05-07T02:56:18;21.03;;;7.93;;
7831;SDS011;3961;42.058;25.586;2023-05-07T02:58:43;14.27;;;7.87;;
7831;SDS011;3961;42.058;25.586;2023-05-07T03:01:09;12.43;;;8.37;;
7831;SDS011;3961;42.058;25.586;2023-05-07T03:03:35;10.67;;;7.30;;
7831;SDS011;3961;42.058;25.586;2023-05-07T03:06:01;12.17;;;7.37;;
7831;SDS011;3961;42.058;25.586;2023-05-07T03:08:26;9.80;;;7.73;;
7831;SDS011;3961;42.058;25.586;2023-05-07T03:10:52;10.23;;;6.97;;
7831;SDS011;3961;42.058;25.586;2023-05-07T03:13:17;11.23;;;7.70;;
7831;SDS011;3961;42.058;25.586;2023-05-07T03:15:43;10.17;;;8.03;;
7831;SDS011;3961;42.058;25.586;2023-05-07T03:18:08;13.20;;;7.73;;
7831;SDS011;3961;42.058;25.586;2023-05-07T03:20:34;12.27;;;7.73;;
7831;SDS011;3961;42.058;25.586;2023-05-07T03:23:01;10.93;;;7.73;;
7831;SDS011;3961;42.058;25.586;2023-05-07T03:25:27;14.53;;;8.13;;
7831;SDS011;3961;42.058;25.586;2023-05-07T03:27:52;13.77;;;8.23;;
7831;SDS011;3961;42.058;25.586;2023-05-07T03:30:18;11.53;;;8.20;;
7831;SDS011;3961;42.058;25.586;2023-05-07T03:32:44;14.07;;;7.87;;
7831;SDS011;3961;42.058;25.586;2023-05-07T03:35:09;12.10;;;7.73;;
7831;SDS011;3961;42.058;25.586;2023-05-07T03:37:35;12.77;;;7.00;;
7831;SDS011;3961;42.058;25.586;2023-05-07T03:40:00;9.50;;;7.13;;
7831;SDS011;3961;42.058;25.586;2023-05-07T03:42:26;11.63;;;7.57;;
7831;SDS011;3961;42.058;25.586;2023-05-07T03:44:51;16.37;;;7.40;;
7831;SDS011;3961;42.058;25.586;2023-05-07T03:47:17;13.30;;;7.00;;
7831;SDS011;3961;42.058;25.586;2023-05-07T03:49:42;9.60;;;6.33;;
7831;SDS011;3961;42.058;25.586;2023-05-07T03:52:07;19.93;;;9.67;;
7831;SDS011;3961;42.058;25.586;2023-05-07T03:54:33;21.13;;;9.53;;
7831;SDS011;3961;42.058;25.586;2023-05-07T03:56:58;12.53;;;7.87;;
7831;SDS011;3961;42.058;25.586;2023-05-07T03:59:24;12.57;;;6.27;;
7831;SDS011;3961;42.058;25.586;2023-05-07T04:01:50;9.70;;;5.90;;
7831;SDS011;3961;42.058;25.586;2023-05-07T04:04:16;8.77;;;5.70;;
7831;SDS011;3961;42.058;25.586;2023-05-07T04:06:41;10.37;;;6.23;;
7831;SDS011;3961;42.058;25.586;2023-05-07T04:09:07;8.17;;;5.80;;
7831;SDS011;3961;42.058;25.586;2023-05-07T04:11:33;10.47;;;6.50;;
7831;SDS011;3961;42.058;25.586;2023-05-07T04:14:02;11.25;;;6.28;;
7831;SDS011;3961;42.058;25.586;2023-05-07T04:16:28;9.53;;;6.17;;
7831;SDS011;3961;42.058;25.586;2023-05-07T04:18:53;11.67;;;6.67;;
7831;SDS011;3961;42.058;25.586;2023-05-07T04:21:19;18.23;;;7.30;;
7831;SDS011;3961;42.058;25.586;2023-05-07T04:23:46;17.50;;;6.27;;
7831;SDS011;3961;42.058;25.586;2023-05-07T04:26:12;12.50;;;5.70;;
7831;SDS011;3961;42.058;25.586;2023-05-07T04:28:38;13.27;;;6.43;;
7831;SDS011;3961;42.058;25.586;2023-05-07T04:31:04;11.47;;;5.27;;
7831;SDS011;3961;42.058;25.586;2023-05-07T04:33:30;11.17;;;5.30;;
7831;SDS011;3961;42.058;25.586;2023-05-07T04:35:56;11.10;;;4.97;;
7831;SDS011;3961;42.058;25.586;2023-05-07T04:38:21;12.63;;;5.80;;
7831;SDS011;3961;42.058;25.586;2023-05-07T04:40:48;13.50;;;5.97;;
7831;SDS011;3961;42.058;25.586;2023-05-07T04:43:14;13.50;;;6.60;;
7831;SDS011;3961;42.058;25.586;2023-05-07T04:45:41;7.70;;;5.60;;
7831;SDS011;3961;42.058;25.586;2023-05-07T04:48:06;9.57;;;6.50;;
7831;SDS011;3961;42.058;25.586;2023-05-07T04:50:34;10.23;;;5.40;;
7831;SDS011;3961;42.058;25.586;2023-05-07T04:52:59;10.50;;;5.20;;
7831;SDS011;3961;42.058;25.586;2023-05-07T04:55:25;10.73;;;6.23;;
7831;SDS011;3961;42.058;25.586;2023-05-07T04:57:51;10.63;;;5.60;;
7831;SDS011;3961;42.058;25.586;2023-05-07T05:00:17;13.00;;;5.80;;
7831;SDS011;3961;42.058;25.586;2023-05-07T05:02:44;14.87;;;7.73;;
7831;SDS011;3961;42.058;25.586;2023-05-07T05:05:10;14.27;;;7.00;;
7831;SDS011;3961;42.058;25.586;2023-05-07T05:07:37;9.67;;;4.90;;
7831;SDS011;3961;42.058;25.586;2023-05-07T05:10:02;10.63;;;6.23;;
7831;SDS011;3961;42.058;25.586;2023-05-07T05:12:30;13.10;;;6.10;;
7831;SDS011;3961;42.058;25.586;2023-05-07T05:14:56;12.13;;;5.33;;
7831;SDS011;3961;42.058;25.586;2023-05-07T05:17:21;10.37;;;5.40;;
7831;SDS011;3961;42.058;25.586;2023-05-07T05:19:47;7.57;;;4.93;;
7831;SDS011;3961;42.058;25.586;2023-05-07T05:22:12;11.93;;;5.77;;
7831;SDS011;3961;42.058;25.586;2023-05-07T05:24:38;12.50;;;5.47;;
7831;SDS011;3961;42.058;25.586;2023-05-07T05:27:03;11.20;;;5.37;;
7831;SDS011;3961;42.058;25.586;2023-05-07T05:29:29;9.90;;;5.40;;
7831;SDS011;3961;42.058;25.586;2023-05-07T05:31:56;7.33;;;5.83;;
7831;SDS011;3961;42.058;25.586;2023-05-07T05:34:22;10.53;;;6.00;;
7831;SDS011;3961;42.058;25.586;2023-05-07T05:36:47;11.10;;;6.50;;
7831;SDS011;3961;42.058;25.586;2023-05-07T05:39:13;16.37;;;5.77;;
7831;SDS011;3961;42.058;25.586;2023-05-07T05:41:39;11.27;;;6.57;;
7831;SDS011;3961;42.058;25.586;2023-05-07T05:44:04;11.33;;;6.70;;
7831;SDS011;3961;42.058;25.586;2023-05-07T05:46:30;16.17;;;6.70;;
7831;SDS011;3961;42.058;25.586;2023-05-07T05:48:55;11.57;;;6.20;;
7831;SDS011;3961;42.058;25.586;2023-05-07T05:51:22;10.53;;;5.80;;
7831;SDS011;3961;42.058;25.586;2023-05-07T05:53:48;9.23;;;5.93;;
7831;SDS011;3961;42.058;25.586;2023-05-07T05:56:14;10.63;;;6.20;;
7831;SDS011;3961;42.058;25.586;2023-05-07T05:58:40;9.30;;;5.83;;
7831;SDS011;3961;42.058;25.586;2023-05-07T06:01:06;12.70;;;6.07;;
7831;SDS011;3961;42.058;25.586;2023-05-07T06:03:31;14.97;;;6.20;;
7831;SDS011;3961;42.058;25.586;2023-05-07T06:06:00;11.03;;;6.67;;
7831;SDS011;3961;42.058;25.586;2023-05-07T06:08:28;9.27;;;6.53;;
7831;SDS011;3961;42.058;25.586;2023-05-07T06:10:54;12.53;;;7.67;;
7831;SDS011;3961;42.058;25.586;2023-05-07T06:13:20;12.37;;;6.37;;
7831;SDS011;3961;42.058;25.586;2023-05-07T06:15:45;12.53;;;6.23;;
7831;SDS011;3961;42.058;25.586;2023-05-07T06:18:11;10.23;;;5.93;;
7831;SDS011;3961;42.058;25.586;2023-05-07T06:20:36;9.23;;;6.30;;
7831;SDS011;3961;42.058;25.586;2023-05-07T06:23:02;12.77;;;6.80;;
7831;SDS011;3961;42.058;25.586;2023-05-07T06:25:27;13.93;;;6.90;;
7831;SDS011;3961;42.058;25.586;2023-05-07T06:27:53;8.87;;;5.80;;
7831;SDS011;3961;42.058;25.586;2023-05-07T06:30:18;8.03;;;5.30;;
7831;SDS011;3961;42.058;25.586;2023-05-07T06:32:44;9.03;;;5.67;;
7831;SDS011;3961;42.058;25.586;2023-05-07T06:35:09;10.10;;;5.23;;
7831;SDS011;3961;42.058;25.586;2023-05-07T06:37:35;8.70;;;4.87;;
7831;SDS011;3961;42.058;25.586;2023-05-07T06:40:03;10.97;;;6.27;;
7831;SDS011;3961;42.058;25.586;2023-05-07T06:42:30;14.73;;;5.33;;
7831;SDS011;3961;42.058;25.586;2023-05-07T06:44:55;7.40;;;4.90;;
7831;SDS011;3961;42.058;25.586;2023-05-07T06:47:20;10.50;;;4.50;;
7831;SDS011;3961;42.058;25.586;2023-05-07T06:49:46;11.20;;;6.93;;
7831;SDS011;3961;42.058;25.586;2023-05-07T06:52:11;8.87;;;4.80;;
7831;SDS011;3961;42.058;25.586;2023-05-07T06:54:37;11.17;;;4.97;;
7831;SDS011;3961;42.058;25.586;2023-05-07T06:57:03;9.40;;;5.10;;
7831;SDS011;3961;42.058;25.586;2023-05-07T06:59:28;7.00;;;4.20;;
7831;SDS011;3961;42.058;25.586;2023-05-07T07:01:54;9.63;;;5.53;;
7831;SDS011;3961;42.058;25.586;2023-05-07T07:04:19;9.70;;;4.47;;
7831;SDS011;3961;42.058;25.586;2023-05-07T07:06:47;17.10;;;5.03;;
7831;SDS011;3961;42.058;25.586;2023-05-07T07:09:12;13.50;;;4.83;;
7831;SDS011;3961;42.058;25.586;2023-05-07T07:11:38;8.50;;;4.50;;
7831;SDS011;3961;42.058;25.586;2023-05-07T07:14:03;16.90;;;5.37;;
7831;SDS011;3961;42.058;25.586;2023-05-07T07:16:30;8.90;;;4.30;;
7831;SDS011;3961;42.058;25.586;2023-05-07T07:18:55;9.53;;;3.80;;
7831;SDS011;3961;42.058;25.586;2023-05-07T07:21:21;23.87;;;5.07;;
7831;SDS011;3961;42.058;25.586;2023-05-07T07:23:46;8.97;;;4.50;;
7831;SDS011;3961;42.058;25.586;2023-05-07T07:26:12;12.70;;;5.43;;
7831;SDS011;3961;42.058;25.586;2023-05-07T07:28:42;9.10;;;4.37;;
7831;SDS011;3961;42.058;25.586;2023-05-07T07:31:08;9.30;;;4.87;;
7831;SDS011;3961;42.058;25.586;2023-05-07T07:33:34;14.73;;;4.40;;
7831;SDS011;3961;42.058;25.586;2023-05-07T07:36:00;11.63;;;4.47;;
7831;SDS011;3961;42.058;25.586;2023-05-07T07:38:25;8.67;;;4.70;;
7831;SDS011;3961;42.058;25.586;2023-05-07T07:40:51;9.23;;;5.03;;
7831;SDS011;3961;42.058;25.586;2023-05-07T07:43:16;6.83;;;3.93;;
7831;SDS011;3961;42.058;25.586;2023-05-07T07:45:42;7.43;;;3.87;;
7831;SDS011;3961;42.058;25.586;2023-05-07T07:48:07;12.47;;;4.37;;
7831;SDS011;3961;42.058;25.586;2023-05-07T07:50:33;8.07;;;4.50;;
7831;SDS011;3961;42.058;25.586;2023-05-07T07:52:58;8.20;;;4.13;;
7831;SDS011;3961;42.058;25.586;2023-05-07T07:55:24;12.40;;;4.00;;
7831;SDS011;3961;42.058;25.586;2023-05-07T07:57:49;6.63;;;4.30;;
7831;SDS011;3961;42.058;25.586;2023-05-07T08:00:15;7.10;;;3.97;;
7831;SDS011;3961;42.058;25.586;2023-05-07T08:02:41;7.77;;;3.97;;
7831;SDS011;3961;42.058;25.586;2023-05-07T08:05:07;8.33;;;3.80;;
7831;SDS011;3961;42.058;25.586;2023-05-07T08:07:32;10.00;;;4.13;;
7831;SDS011;3961;42.058;25.586;2023-05-07T08:09:58;17.97;;;4.63;;
7831;SDS011;3961;42.058;25.586;2023-05-07T08:12:23;8.23;;;3.40;;
7831;SDS011;3961;42.058;25.586;2023-05-07T08:14:49;8.00;;;3.87;;
7831;SDS011;3961;42.058;25.586;2023-05-07T08:17:15;8.10;;;3.40;;
7831;SDS011;3961;42.058;25.586;2023-05-07T08:19:41;6.27;;;4.00;;
7831;SDS011;3961;42.058;25.586;2023-05-07T08:22:08;8.53;;;3.97;;
7831;SDS011;3961;42.058;25.586;2023-05-07T08:24:34;3.80;;;2.80;;
7831;SDS011;3961;42.058;25.586;2023-05-07T08:27:00;7.10;;;3.27;;
7831;SDS011;3961;42.058;25.586;2023-05-07T08:29:25;6.40;;;3.13;;
7831;SDS011;3961;42.058;25.586;2023-05-07T08:31:51;7.10;;;3.03;;
7831;SDS011;3961;42.058;25.586;2023-05-07T08:34:16;8.13;;;3.17;;
7831;SDS011;3961;42.058;25.586;2023-05-07T08:36:42;9.97;;;3.60;;
7831;SDS011;3961;42.058;25.586;2023-05-07T08:39:07;4.63;;;3.30;;
7831;SDS011;3961;42.058;25.586;2023-05-07T08:41:33;4.63;;;3.00;;
7831;SDS011;3961;42.058;25.586;2023-05-07T08:44:00;6.17;;;3.10;;
7831;SDS011;3961;42.058;25.586;2023-05-07T08:46:30;7.47;;;2.80;;
7831;SDS011;3961;42.058;25.586;2023-05-07T08:48:57;8.53;;;2.80;;
7831;SDS011;3961;42.058;25.586;2023-05-07T08:51:22;3.83;;;2.50;;
7831;SDS011;3961;42.058;25.586;2023-05-07T08:53:48;7.40;;;3.07;;
7831;SDS011;3961;42.058;25.586;2023-05-07T08:56:15;6.87;;;2.50;;
7831;SDS011;3961;42.058;25.586;2023-05-07T08:58:42;5.23;;;2.73;;
7831;SDS011;3961;42.058;25.586;2023-05-07T09:01:14;6.77;;;3.17;;
7831;SDS011;3961;42.058;25.586;2023-05-07T09:03:41;6.90;;;3.00;;
7831;SDS011;3961;42.058;25.586;2023-05-07T09:06:10;3.97;;;2.70;;
7831;SDS011;3961;42.058;25.586;2023-05-07T09:08:36;8.80;;;2.47;;
7831;SDS011;3961;42.058;25.586;2023-05-07T09:11:02;4.57;;;2.23;;
7831;SDS011;3961;42.058;25.586;2023-05-07T09:13:28;4.50;;;2.47;;
7831;SDS011;3961;42.058;25.586;2023-05-07T09:15:54;4.97;;;2.37;;
7831;SDS011;3961;42.058;25.586;2023-05-07T09:18:20;5.47;;;2.30;;
7831;SDS011;3961;42.058;25.586;2023-05-07T09:20:46;4.93;;;2.03;;
7831;SDS011;3961;42.058;25.586;2023-05-07T09:23:11;9.60;;;2.67;;
7831;SDS011;3961;42.058;25.586;2023-05-07T09:25:37;7.93;;;3.10;;
7831;SDS011;3961;42.058;25.586;2023-05-07T09:28:03;17.17;;;2.90;;
7831;SDS011;3961;42.058;25.586;2023-05-07T09:30:32;7.03;;;2.90;;
7831;SDS011;3961;42.058;25.586;2023-05-07T09:32:59;3.97;;;2.70;;
7831;SDS011;3961;42.058;25.586;2023-05-07T09:35:26;8.47;;;2.80;;
7831;SDS011;3961;42.058;25.586;2023-05-07T09:37:53;6.20;;;2.73;;
7831;SDS011;3961;42.058;25.586;2023-05-07T09:40:23;7.10;;;3.00;;
7831;SDS011;3961;42.058;25.586;2023-05-07T09:42:49;5.83;;;2.93;;
7831;SDS011;3961;42.058;25.586;2023-05-07T09:45:16;5.17;;;2.60;;
7831;SDS011;3961;42.058;25.586;2023-05-07T09:47:46;7.57;;;2.90;;
7831;SDS011;3961;42.058;25.586;2023-05-07T09:50:15;5.83;;;2.10;;
7831;SDS011;3961;42.058;25.586;2023-05-07T09:52:42;5.90;;;2.70;;
7831;SDS011;3961;42.058;25.586;2023-05-07T09:55:09;6.97;;;2.20;;
7831;SDS011;3961;42.058;25.586;2023-05-07T09:57:35;6.73;;;4.00;;
7831;SDS011;3961;42.058;25.586;2023-05-07T10:00:02;2.67;;;1.90;;
7831;SDS011;3961;42.058;25.586;2023-05-07T10:02:31;5.10;;;2.37;;
7831;SDS011;3961;42.058;25.586;2023-05-07T10:05:00;4.73;;;1.90;;
7831;SDS011;3961;42.058;25.586;2023-05-07T10:07:27;5.43;;;2.27;;
7831;SDS011;3961;42.058;25.586;2023-05-07T10:09:53;3.90;;;1.80;;
7831;SDS011;3961;42.058;25.586;2023-05-07T10:12:19;2.93;;;1.80;;
7831;SDS011;3961;42.058;25.586;2023-05-07T10:14:46;7.77;;;1.90;;
7831;SDS011;3961;42.058;25.586;2023-05-07T10:17:13;4.30;;;1.90;;
7831;SDS011;3961;42.058;25.586;2023-05-07T10:19:39;3.07;;;1.90;;
7831;SDS011;3961;42.058;25.586;2023-05-07T10:22:06;5.33;;;2.30;;
7831;SDS011;3961;42.058;25.586;2023-05-07T10:24:33;2.20;;;1.80;;
7831;SDS011;3961;42.058;25.586;2023-05-07T10:27:02;4.07;;;1.90;;
7831;SDS011;3961;42.058;25.586;2023-05-07T10:29:35;5.70;;;1.97;;
7831;SDS011;3961;42.058;25.586;2023-05-07T10:35:16;3.97;;;1.70;;
7831;SDS011;3961;42.058;25.586;2023-05-07T10:37:44;3.37;;;2.03;;
7831;SDS011;3961;42.058;25.586;2023-05-07T10:40:10;8.53;;;2.10;;
7831;SDS011;3961;42.058;25.586;2023-05-07T10:42:37;4.50;;;1.90;;
7831;SDS011;3961;42.058;25.586;2023-05-07T10:45:14;3.53;;;1.90;;
7831;SDS011;3961;42.058;25.586;2023-05-07T10:50:35;9.33;;;2.30;;
7831;SDS011;3961;42.058;25.586;2023-05-07T10:55:42;3.20;;;1.97;;
7831;SDS011;3961;42.058;25.586;2023-05-07T11:00:47;9.67;;;2.33;;
7831;SDS011;3961;42.058;25.586;2023-05-07T11:03:16;6.07;;;1.90;;
7831;SDS011;3961;42.058;25.586;2023-05-07T11:05:42;4.20;;;2.10;;
7831;SDS011;3961;42.058;25.586;2023-05-07T11:08:08;2.60;;;1.80;;
7831;SDS011;3961;42.058;25.586;2023-05-07T11:13:42;5.60;;;1.90;;
7831;SDS011;3961;42.058;25.586;2023-05-07T11:16:16;4.60;;;2.13;;
7831;SDS011;3961;42.058;25.586;2023-05-07T11:18:50;5.47;;;2.20;;
7831;SDS011;3961;42.058;25.586;2023-05-07T11:21:36;6.50;;;2.00;;
7831;SDS011;3961;42.058;25.586;2023-05-07T11:24:02;4.73;;;1.70;;
7831;SDS011;3961;42.058;25.586;2023-05-07T11:26:30;4.03;;;1.80;;
7831;SDS011;3961;42.058;25.586;2023-05-07T11:29:10;4.77;;;1.80;;
7831;SDS011;3961;42.058;25.586;2023-05-07T11:31:36;2.83;;;1.63;;
7831;SDS011;3961;42.058;25.586;2023-05-07T11:34:02;4.57;;;1.90;;
7831;SDS011;3961;42.058;25.586;2023-05-07T11:36:30;8.03;;;1.80;;
7831;SDS011;3961;42.058;25.586;2023-05-07T11:38:57;3.43;;;1.80;;
7831;SDS011;3961;42.058;25.586;2023-05-07T11:41:22;6.67;;;2.20;;
7831;SDS011;3961;42.058;25.586;2023-05-07T11:43:59;3.47;;;2.03;;
7831;SDS011;3961;42.058;25.586;2023-05-07T11:46:24;2.50;;;1.70;;
7831;SDS011;3961;42.058;25.586;2023-05-07T11:48:51;4.17;;;1.93;;
7831;SDS011;3961;42.058;25.586;2023-05-07T11:51:20;2.97;;;2.07;;
7831;SDS011;3961;42.058;25.586;2023-05-07T11:53:47;6.10;;;2.33;;
7831;SDS011;3961;42.058;25.586;2023-05-07T11:56:14;4.37;;;2.03;;
7831;SDS011;3961;42.058;25.586;2023-05-07T11:58:41;3.70;;;1.90;;
7831;SDS011;3961;42.058;25.586;2023-05-07T12:01:09;7.90;;;2.43;;
7831;SDS011;3961;42.058;25.586;2023-05-07T12:03:36;6.37;;;2.03;;
7831;SDS011;3961;42.058;25.586;2023-05-07T12:06:07;3.70;;;1.90;;
7831;SDS011;3961;42.058;25.586;2023-05-07T12:08:32;2.77;;;1.83;;
7831;SDS011;3961;42.058;25.586;2023-05-07T12:10:58;3.83;;;1.90;;
7831;SDS011;3961;42.058;25.586;2023-05-07T12:13:24;5.07;;;1.90;;
7831;SDS011;3961;42.058;25.586;2023-05-07T12:15:51;5.90;;;2.03;;
7831;SDS011;3961;42.058;25.586;2023-05-07T12:18:17;7.70;;;2.13;;
7831;SDS011;3961;42.058;25.586;2023-05-07T12:20:43;3.53;;;1.60;;
7831;SDS011;3961;42.058;25.586;2023-05-07T12:23:10;5.60;;;1.87;;
7831;SDS011;3961;42.058;25.586;2023-05-07T12:25:36;4.00;;;1.63;;
7831;SDS011;3961;42.058;25.586;2023-05-07T12:28:03;2.20;;;1.93;;
7831;SDS011;3961;42.058;25.586;2023-05-07T12:30:39;4.77;;;2.00;;
7831;SDS011;3961;42.058;25.586;2023-05-07T12:33:05;4.57;;;2.10;;
7831;SDS011;3961;42.058;25.586;2023-05-07T12:35:31;6.10;;;1.87;;
7831;SDS011;3961;42.058;25.586;2023-05-07T12:38:01;2.73;;;1.70;;
7831;SDS011;3961;42.058;25.586;2023-05-07T12:40:37;4.67;;;2.30;;
7831;SDS011;3961;42.058;25.586;2023-05-07T12:43:07;3.00;;;2.23;;
7831;SDS011;3961;42.058;25.586;2023-05-07T12:45:41;3.80;;;2.10;;
7831;SDS011;3961;42.058;25.586;2023-05-07T12:48:06;3.53;;;2.17;;
7831;SDS011;3961;42.058;25.586;2023-05-07T12:50:34;4.70;;;1.90;;
7831;SDS011;3961;42.058;25.586;2023-05-07T12:53:00;5.40;;;2.13;;
7831;SDS011;3961;42.058;25.586;2023-05-07T12:55:40;3.97;;;1.97;;
7831;SDS011;3961;42.058;25.586;2023-05-07T12:58:07;1.70;;;1.57;;
7831;SDS011;3961;42.058;25.586;2023-05-07T13:00:34;4.90;;;1.87;;
7831;SDS011;3961;42.058;25.586;2023-05-07T13:03:00;4.60;;;2.30;;
7831;SDS011;3961;42.058;25.586;2023-05-07T13:05:26;3.17;;;2.10;;
7831;SDS011;3961;42.058;25.586;2023-05-07T13:07:55;3.90;;;1.80;;
7831;SDS011;3961;42.058;25.586;2023-05-07T13:10:21;5.60;;;1.73;;
7831;SDS011;3961;42.058;25.586;2023-05-07T13:12:50;6.60;;;2.00;;
7831;SDS011;3961;42.058;25.586;2023-05-07T13:15:16;3.07;;;1.80;;
7831;SDS011;3961;42.058;25.586;2023-05-07T13:17:42;4.33;;;1.90;;
7831;SDS011;3961;42.058;25.586;2023-05-07T13:20:09;6.03;;;2.03;;
7831;SDS011;3961;42.058;25.586;2023-05-07T13:22:35;2.77;;;2.20;;
7831;SDS011;3961;42.058;25.586;2023-05-07T13:25:01;7.03;;;2.60;;
7831;SDS011;3961;42.058;25.586;2023-05-07T13:27:26;5.23;;;2.17;;
7831;SDS011;3961;42.058;25.586;2023-05-07T13:29:52;4.33;;;2.27;;
7831;SDS011;3961;42.058;25.586;2023-05-07T13:32:17;3.10;;;2.33;;
7831;SDS011;3961;42.058;25.586;2023-05-07T13:34:43;4.23;;;2.30;;
7831;SDS011;3961;42.058;25.586;2023-05-07T13:37:08;3.17;;;2.10;;
7831;SDS011;3961;42.058;25.586;2023-05-07T13:39:34;2.60;;;2.13;;
7831;SDS011;3961;42.058;25.586;2023-05-07T13:41:59;3.40;;;2.30;;
7831;SDS011;3961;42.058;25.586;2023-05-07T13:44:26;8.10;;;2.23;;
7831;SDS011;3961;42.058;25.586;2023-05-07T13:46:51;5.87;;;2.27;;
7831;SDS011;3961;42.058;25.586;2023-05-07T13:49:17;3.67;;;2.23;;
7831;SDS011;3961;42.058;25.586;2023-05-07T13:51:42;4.30;;;2.20;;
7831;SDS011;3961;42.058;25.586;2023-05-07T13:54:08;4.83;;;2.00;;
7831;SDS011;3961;42.058;25.586;2023-05-07T13:56:33;4.50;;;2.50;;
7831;SDS011;3961;42.058;25.586;2023-05-07T13:58:59;2.37;;;1.90;;
7831;SDS011;3961;42.058;25.586;2023-05-07T14:01:24;4.57;;;2.10;;
7831;SDS011;3961;42.058;25.586;2023-05-07T14:03:50;6.53;;;2.20;;
7831;SDS011;3961;42.058;25.586;2023-05-07T14:06:15;5.40;;;2.13;;
7831;SDS011;3961;42.058;25.586;2023-05-07T14:08:41;6.50;;;1.70;;
7831;SDS011;3961;42.058;25.586;2023-05-07T14:11:06;2.63;;;1.90;;
7831;SDS011;3961;42.058;25.586;2023-05-07T14:13:32;5.47;;;2.27;;
7831;SDS011;3961;42.058;25.586;2023-05-07T14:15:59;4.33;;;2.17;;
7831;SDS011;3961;42.058;25.586;2023-05-07T14:18:25;6.70;;;2.13;;
7831;SDS011;3961;42.058;25.586;2023-05-07T14:20:51;7.60;;;2.37;;
7831;SDS011;3961;42.058;25.586;2023-05-07T14:23:17;3.57;;;1.90;;
7831;SDS011;3961;42.058;25.586;2023-05-07T14:25:44;4.13;;;1.90;;
7831;SDS011;3961;42.058;25.586;2023-05-07T14:28:11;2.47;;;1.83;;
7831;SDS011;3961;42.058;25.586;2023-05-07T14:30:36;4.53;;;2.40;;
7831;SDS011;3961;42.058;25.586;2023-05-07T14:33:02;3.00;;;2.10;;
7831;SDS011;3961;42.058;25.586;2023-05-07T14:35:27;4.30;;;1.83;;
7831;SDS011;3961;42.058;25.586;2023-05-07T14:37:53;6.10;;;2.27;;
7831;SDS011;3961;42.058;25.586;2023-05-07T14:40:18;3.00;;;1.97;;
7831;SDS011;3961;42.058;25.586;2023-05-07T14:42:44;6.03;;;2.90;;
7831;SDS011;3961;42.058;25.586;2023-05-07T14:45:09;4.97;;;2.43;;
7831;SDS011;3961;42.058;25.586;2023-05-07T14:47:35;4.33;;;2.23;;
7831;SDS011;3961;42.058;25.586;2023-05-07T14:50:00;6.37;;;2.17;;
7831;SDS011;3961;42.058;25.586;2023-05-07T14:52:26;3.77;;;2.07;;
7831;SDS011;3961;42.058;25.586;2023-05-07T14:54:52;2.90;;;1.80;;
7831;SDS011;3961;42.058;25.586;2023-05-07T14:57:17;5.03;;;2.37;;
7831;SDS011;3961;42.058;25.586;2023-05-07T14:59:44;4.93;;;1.90;;
7831;SDS011;3961;42.058;25.586;2023-05-07T15:02:10;4.33;;;2.40;;
7831;SDS011;3961;42.058;25.586;2023-05-07T15:04:37;4.27;;;2.17;;